sensor_id;sensor_type;location;lat;lon;timestamp;P1;durP1;ratioP1;P2;durP2;ratioP2
36715;SDS011;22699;51.034;3.730;2023-04-03T00:02:02;11.15;;;7.93;;
36715;SDS011;22699;51.034;3.730;2023-04-03T00:04:29;9.68;;;6.40;;
36715;SDS011;22699;51.034;3.730;2023-04-03T00:06:55;9.80;;;7.13;;
36715;SDS011;22699;51.034;3.730;2023-04-03T00:09:20;11.05;;;6.57;;
36715;SDS011;22699;51.034;3.730;2023-04-03T00:11:47;8.13;;;6.40;;
36715;SDS011;22699;51.034;3.730;2023-04-03T00:14:13;8.70;;;6.13;;
36715;SDS011;22699;51.034;3.730;2023-04-03T00:16:40;8.30;;;6.50;;
36715;SDS011;22699;51.034;3.730;2023-04-03T00:19:06;8.13;;;5.65;;
36715;SDS011;22699;51.034;3.730;2023-04-03T00:21:33;8.60;;;6.13;;
36715;SDS011;22699;51.034;3.730;2023-04-03T00:23:59;8.38;;;6.13;;
36715;SDS011;22699;51.034;3.730;2023-04-03T00:26:25;10.68;;;6.15;;
36715;SDS011;22699;51.034;3.730;2023-04-03T00:28:50;8.23;;;5.95;;
36715;SDS011;22699;51.034;3.730;2023-04-03T00:31:16;8.02;;;5.80;;
36715;SDS011;22699;51.034;3.730;2023-04-03T00:33:42;9.65;;;5.60;;
36715;SDS011;22699;51.034;3.730;2023-04-03T00:36:09;8.18;;;5.93;;
36715;SDS011;22699;51.034;3.730;2023-04-03T00:38:37;5.32;;;4.45;;
36715;SDS011;22699;51.034;3.730;2023-04-03T00:41:02;8.30;;;4.93;;
36715;SDS011;22699;51.034;3.730;2023-04-03T00:43:29;10.25;;;5.47;;
36715;SDS011;22699;51.034;3.730;2023-04-03T00:45:55;9.27;;;5.40;;
36715;SDS011;22699;51.034;3.730;2023-04-03T00:50:50;7.88;;;6.00;;
36715;SDS011;22699;51.034;3.730;2023-04-03T00:53:18;8.48;;;5.53;;
36715;SDS011;22699;51.034;3.730;2023-04-03T00:55:49;9.77;;;5.95;;
36715;SDS011;22699;51.034;3.730;2023-04-03T00:58:20;8.50;;;5.93;;
36715;SDS011;22699;51.034;3.730;2023-04-03T01:00:52;9.05;;;5.43;;
36715;SDS011;22699;51.034;3.730;2023-04-03T01:03:22;9.35;;;5.50;;
36715;SDS011;22699;51.034;3.730;2023-04-03T01:05:51;6.47;;;5.22;;
36715;SDS011;22699;51.034;3.730;2023-04-03T01:08:17;6.07;;;5.28;;
36715;SDS011;22699;51.034;3.730;2023-04-03T01:10:44;7.38;;;5.13;;
36715;SDS011;22699;51.034;3.730;2023-04-03T01:13:23;10.35;;;6.15;;
36715;SDS011;22699;51.034;3.730;2023-04-03T01:15:51;7.90;;;5.10;;
36715;SDS011;22699;51.034;3.730;2023-04-03T01:18:18;7.07;;;5.43;;
36715;SDS011;22699;51.034;3.730;2023-04-03T01:23:32;10.93;;;6.22;;
36715;SDS011;22699;51.034;3.730;2023-04-03T01:26:10;11.25;;;5.70;;
36715;SDS011;22699;51.034;3.730;2023-04-03T01:28:38;7.85;;;5.45;;
36715;SDS011;22699;51.034;3.730;2023-04-03T01:40:40;7.63;;;5.47;;
36715;SDS011;22699;51.034;3.730;2023-04-03T01:43:16;11.25;;;5.50;;
36715;SDS011;22699;51.034;3.730;2023-04-03T01:45:53;10.45;;;4.93;;
36715;SDS011;22699;51.034;3.730;2023-04-03T01:54:39;9.05;;;4.82;;
36715;SDS011;22699;51.034;3.730;2023-04-03T02:00:01;6.95;;;5.05;;
36715;SDS011;22699;51.034;3.730;2023-04-03T02:02:36;6.50;;;5.28;;
36715;SDS011;22699;51.034;3.730;2023-04-03T02:10:59;6.95;;;5.15;;
36715;SDS011;22699;51.034;3.730;2023-04-03T02:13:24;8.23;;;5.45;;
36715;SDS011;22699;51.034;3.730;2023-04-03T02:15:52;8.13;;;6.03;;
36715;SDS011;22699;51.034;3.730;2023-04-03T02:18:18;7.80;;;5.63;;
36715;SDS011;22699;51.034;3.730;2023-04-03T02:20:46;12.10;;;5.57;;
36715;SDS011;22699;51.034;3.730;2023-04-03T02:26:36;8.20;;;6.13;;
36715;SDS011;22699;51.034;3.730;2023-04-03T02:32:24;9.73;;;5.63;;
36715;SDS011;22699;51.034;3.730;2023-04-03T02:38:14;9.20;;;5.95;;
36715;SDS011;22699;51.034;3.730;2023-04-03T02:50:19;12.68;;;7.35;;
36715;SDS011;22699;51.034;3.730;2023-04-03T02:56:09;9.85;;;6.05;;
36715;SDS011;22699;51.034;3.730;2023-04-03T02:58:44;9.50;;;6.30;;
36715;SDS011;22699;51.034;3.730;2023-04-03T03:04:40;7.90;;;5.70;;
36715;SDS011;22699;51.034;3.730;2023-04-03T03:07:09;7.47;;;5.90;;
36715;SDS011;22699;51.034;3.730;2023-04-03T03:09:52;7.80;;;5.55;;
36715;SDS011;22699;51.034;3.730;2023-04-03T03:12:36;8.50;;;6.28;;
36715;SDS011;22699;51.034;3.730;2023-04-03T03:15:02;7.78;;;5.63;;
36715;SDS011;22699;51.034;3.730;2023-04-03T03:17:44;9.00;;;6.20;;
36715;SDS011;22699;51.034;3.730;2023-04-03T03:20:11;6.88;;;5.68;;
36715;SDS011;22699;51.034;3.730;2023-04-03T03:26:11;10.38;;;5.82;;
36715;SDS011;22699;51.034;3.730;2023-04-03T03:31:32;9.25;;;5.80;;
36715;SDS011;22699;51.034;3.730;2023-04-03T03:34:01;12.82;;;5.75;;
36715;SDS011;22699;51.034;3.730;2023-04-03T03:36:30;9.43;;;6.38;;
36715;SDS011;22699;51.034;3.730;2023-04-03T03:39:01;7.43;;;6.47;;
36715;SDS011;22699;51.034;3.730;2023-04-03T03:41:29;8.88;;;6.25;;
36715;SDS011;22699;51.034;3.730;2023-04-03T03:43:56;8.57;;;5.88;;
36715;SDS011;22699;51.034;3.730;2023-04-03T03:46:21;7.63;;;5.93;;
36715;SDS011;22699;51.034;3.730;2023-04-03T03:48:47;8.55;;;5.70;;
36715;SDS011;22699;51.034;3.730;2023-04-03T03:51:13;7.40;;;6.07;;
36715;SDS011;22699;51.034;3.730;2023-04-03T03:53:38;9.20;;;6.18;;
36715;SDS011;22699;51.034;3.730;2023-04-03T03:56:05;8.55;;;6.25;;
36715;SDS011;22699;51.034;3.730;2023-04-03T03:58:32;8.65;;;6.15;;
36715;SDS011;22699;51.034;3.730;2023-04-03T04:01:02;9.38;;;6.10;;
36715;SDS011;22699;51.034;3.730;2023-04-03T04:03:32;6.53;;;5.35;;
36715;SDS011;22699;51.034;3.730;2023-04-03T04:05:58;7.47;;;6.40;;
36715;SDS011;22699;51.034;3.730;2023-04-03T04:08:26;7.95;;;5.50;;
36715;SDS011;22699;51.034;3.730;2023-04-03T04:10:52;8.63;;;5.90;;
36715;SDS011;22699;51.034;3.730;2023-04-03T04:13:19;6.95;;;5.80;;
36715;SDS011;22699;51.034;3.730;2023-04-03T04:15:45;8.27;;;6.22;;
36715;SDS011;22699;51.034;3.730;2023-04-03T04:18:14;7.95;;;6.68;;
36715;SDS011;22699;51.034;3.730;2023-04-03T04:20:41;7.68;;;6.28;;
36715;SDS011;22699;51.034;3.730;2023-04-03T04:23:09;8.55;;;5.65;;
36715;SDS011;22699;51.034;3.730;2023-04-03T04:25:35;7.90;;;6.03;;
36715;SDS011;22699;51.034;3.730;2023-04-03T04:28:01;7.00;;;6.05;;
36715;SDS011;22699;51.034;3.730;2023-04-03T04:30:28;8.43;;;6.13;;
36715;SDS011;22699;51.034;3.730;2023-04-03T04:32:55;10.55;;;6.47;;
36715;SDS011;22699;51.034;3.730;2023-04-03T04:35:21;8.77;;;5.70;;
36715;SDS011;22699;51.034;3.730;2023-04-03T04:37:47;10.25;;;6.90;;
36715;SDS011;22699;51.034;3.730;2023-04-03T04:40:13;11.93;;;6.32;;
36715;SDS011;22699;51.034;3.730;2023-04-03T04:42:40;9.15;;;6.28;;
36715;SDS011;22699;51.034;3.730;2023-04-03T04:45:08;8.18;;;6.65;;
36715;SDS011;22699;51.034;3.730;2023-04-03T04:47:34;7.68;;;6.88;;
36715;SDS011;22699;51.034;3.730;2023-04-03T04:50:00;9.48;;;7.30;;
36715;SDS011;22699;51.034;3.730;2023-04-03T04:52:32;9.68;;;6.78;;
36715;SDS011;22699;51.034;3.730;2023-04-03T04:54:57;9.65;;;6.57;;
36715;SDS011;22699;51.034;3.730;2023-04-03T04:57:23;8.02;;;7.20;;
36715;SDS011;22699;51.034;3.730;2023-04-03T04:59:49;10.07;;;8.65;;
36715;SDS011;22699;51.034;3.730;2023-04-03T05:02:15;7.65;;;6.63;;
36715;SDS011;22699;51.034;3.730;2023-04-03T05:04:42;9.18;;;7.13;;
36715;SDS011;22699;51.034;3.730;2023-04-03T05:07:07;10.07;;;6.82;;
36715;SDS011;22699;51.034;3.730;2023-04-03T05:09:36;10.50;;;7.20;;
36715;SDS011;22699;51.034;3.730;2023-04-03T05:12:06;7.93;;;6.90;;
36715;SDS011;22699;51.034;3.730;2023-04-03T05:14:32;8.93;;;6.85;;
36715;SDS011;22699;51.034;3.730;2023-04-03T05:16:59;8.98;;;6.93;;
36715;SDS011;22699;51.034;3.730;2023-04-03T05:19:25;9.75;;;7.72;;
36715;SDS011;22699;51.034;3.730;2023-04-03T05:21:51;10.90;;;7.47;;
36715;SDS011;22699;51.034;3.730;2023-04-03T05:24:18;9.45;;;7.93;;
36715;SDS011;22699;51.034;3.730;2023-04-03T05:26:44;11.30;;;6.85;;
36715;SDS011;22699;51.034;3.730;2023-04-03T05:29:09;10.05;;;7.55;;
36715;SDS011;22699;51.034;3.730;2023-04-03T05:31:36;9.60;;;7.68;;
36715;SDS011;22699;51.034;3.730;2023-04-03T05:34:08;12.73;;;7.75;;
36715;SDS011;22699;51.034;3.730;2023-04-03T05:36:35;13.05;;;8.45;;
36715;SDS011;22699;51.034;3.730;2023-04-03T05:39:01;11.73;;;7.68;;
36715;SDS011;22699;51.034;3.730;2023-04-03T05:41:28;11.10;;;8.32;;
36715;SDS011;22699;51.034;3.730;2023-04-03T05:43:55;9.35;;;8.25;;
36715;SDS011;22699;51.034;3.730;2023-04-03T05:46:21;9.68;;;8.10;;
36715;SDS011;22699;51.034;3.730;2023-04-03T05:48:48;12.05;;;8.40;;
36715;SDS011;22699;51.034;3.730;2023-04-03T05:51:17;12.63;;;8.05;;
36715;SDS011;22699;51.034;3.730;2023-04-03T05:53:47;9.35;;;8.38;;
36715;SDS011;22699;51.034;3.730;2023-04-03T05:56:48;11.30;;;8.20;;
36715;SDS011;22699;51.034;3.730;2023-04-03T05:59:16;10.00;;;7.70;;
36715;SDS011;22699;51.034;3.730;2023-04-03T06:01:44;15.10;;;8.43;;
36715;SDS011;22699;51.034;3.730;2023-04-03T06:04:17;16.95;;;8.48;;
36715;SDS011;22699;51.034;3.730;2023-04-03T06:06:54;10.43;;;7.68;;
36715;SDS011;22699;51.034;3.730;2023-04-03T06:09:32;8.82;;;7.35;;
36715;SDS011;22699;51.034;3.730;2023-04-03T06:14:32;11.20;;;8.82;;
36715;SDS011;22699;51.034;3.730;2023-04-03T06:16:59;13.02;;;8.75;;
36715;SDS011;22699;51.034;3.730;2023-04-03T06:19:26;11.48;;;8.25;;
36715;SDS011;22699;51.034;3.730;2023-04-03T06:21:55;11.07;;;8.68;;
36715;SDS011;22699;51.034;3.730;2023-04-03T06:24:24;10.88;;;8.77;;
36715;SDS011;22699;51.034;3.730;2023-04-03T06:26:50;11.50;;;8.65;;
36715;SDS011;22699;51.034;3.730;2023-04-03T06:29:18;12.82;;;8.73;;
36715;SDS011;22699;51.034;3.730;2023-04-03T06:31:45;12.65;;;8.75;;
36715;SDS011;22699;51.034;3.730;2023-04-03T06:34:12;12.45;;;7.95;;
36715;SDS011;22699;51.034;3.730;2023-04-03T06:36:39;9.32;;;8.02;;
36715;SDS011;22699;51.034;3.730;2023-04-03T06:39:24;12.82;;;9.05;;
36715;SDS011;22699;51.034;3.730;2023-04-03T06:41:51;12.07;;;8.80;;
36715;SDS011;22699;51.034;3.730;2023-04-03T06:44:16;13.35;;;7.63;;
36715;SDS011;22699;51.034;3.730;2023-04-03T06:46:44;11.20;;;7.70;;
36715;SDS011;22699;51.034;3.730;2023-04-03T06:49:11;12.43;;;7.30;;
36715;SDS011;22699;51.034;3.730;2023-04-03T06:51:37;10.02;;;7.70;;
36715;SDS011;22699;51.034;3.730;2023-04-03T06:54:04;14.20;;;7.70;;
36715;SDS011;22699;51.034;3.730;2023-04-03T06:56:32;10.30;;;8.43;;
36715;SDS011;22699;51.034;3.730;2023-04-03T06:59:11;14.20;;;7.55;;
36715;SDS011;22699;51.034;3.730;2023-04-03T07:01:39;11.93;;;7.80;;
36715;SDS011;22699;51.034;3.730;2023-04-03T07:04:10;11.45;;;7.53;;
36715;SDS011;22699;51.034;3.730;2023-04-03T07:06:37;9.27;;;7.30;;
36715;SDS011;22699;51.034;3.730;2023-04-03T07:09:09;7.85;;;6.78;;
36715;SDS011;22699;51.034;3.730;2023-04-03T07:11:36;10.20;;;6.65;;
36715;SDS011;22699;51.034;3.730;2023-04-03T07:16:43;11.40;;;6.93;;
36715;SDS011;22699;51.034;3.730;2023-04-03T07:19:24;7.50;;;6.80;;
36715;SDS011;22699;51.034;3.730;2023-04-03T07:21:52;15.90;;;7.85;;
36715;SDS011;22699;51.034;3.730;2023-04-03T07:24:19;10.70;;;7.07;;
36715;SDS011;22699;51.034;3.730;2023-04-03T07:26:48;9.40;;;7.25;;
36715;SDS011;22699;51.034;3.730;2023-04-03T07:29:32;12.05;;;7.43;;
36715;SDS011;22699;51.034;3.730;2023-04-03T07:31:57;7.10;;;5.68;;
36715;SDS011;22699;51.034;3.730;2023-04-03T07:34:25;10.00;;;6.13;;
36715;SDS011;22699;51.034;3.730;2023-04-03T07:36:53;8.50;;;6.95;;
36715;SDS011;22699;51.034;3.730;2023-04-03T07:39:20;8.18;;;6.68;;
36715;SDS011;22699;51.034;3.730;2023-04-03T07:41:46;7.78;;;6.15;;
36715;SDS011;22699;51.034;3.730;2023-04-03T07:44:15;8.57;;;6.22;;
36715;SDS011;22699;51.034;3.730;2023-04-03T07:46:42;8.20;;;6.25;;
36715;SDS011;22699;51.034;3.730;2023-04-03T07:49:08;7.85;;;5.82;;
36715;SDS011;22699;51.034;3.730;2023-04-03T07:51:34;10.00;;;5.78;;
36715;SDS011;22699;51.034;3.730;2023-04-03T07:54:02;8.93;;;5.20;;
36715;SDS011;22699;51.034;3.730;2023-04-03T07:56:28;6.72;;;4.07;;
36715;SDS011;22699;51.034;3.730;2023-04-03T07:58:54;7.40;;;4.20;;
36715;SDS011;22699;51.034;3.730;2023-04-03T08:01:20;8.48;;;4.63;;
36715;SDS011;22699;51.034;3.730;2023-04-03T08:03:45;6.80;;;3.95;;
36715;SDS011;22699;51.034;3.730;2023-04-03T08:06:11;4.45;;;3.60;;
36715;SDS011;22699;51.034;3.730;2023-04-03T08:08:38;8.07;;;4.10;;
36715;SDS011;22699;51.034;3.730;2023-04-03T08:11:05;6.35;;;4.00;;
36715;SDS011;22699;51.034;3.730;2023-04-03T08:13:33;7.28;;;4.65;;
36715;SDS011;22699;51.034;3.730;2023-04-03T08:16:10;6.85;;;4.32;;
36715;SDS011;22699;51.034;3.730;2023-04-03T08:18:43;6.22;;;4.25;;
36715;SDS011;22699;51.034;3.730;2023-04-03T08:21:10;5.43;;;4.43;;
36715;SDS011;22699;51.034;3.730;2023-04-03T08:23:38;7.80;;;5.10;;
36715;SDS011;22699;51.034;3.730;2023-04-03T08:26:08;13.50;;;5.22;;
36715;SDS011;22699;51.034;3.730;2023-04-03T08:28:35;7.40;;;5.00;;
36715;SDS011;22699;51.034;3.730;2023-04-03T08:31:05;9.23;;;5.10;;
36715;SDS011;22699;51.034;3.730;2023-04-03T08:33:32;8.98;;;3.95;;
36715;SDS011;22699;51.034;3.730;2023-04-03T08:35:58;6.80;;;5.13;;
36715;SDS011;22699;51.034;3.730;2023-04-03T08:38:24;6.70;;;4.00;;
36715;SDS011;22699;51.034;3.730;2023-04-03T08:44:13;6.22;;;3.72;;
36715;SDS011;22699;51.034;3.730;2023-04-03T08:49:58;6.55;;;3.05;;
36715;SDS011;22699;51.034;3.730;2023-04-03T08:55:20;7.63;;;2.42;;
36715;SDS011;22699;51.034;3.730;2023-04-03T08:58:12;7.22;;;2.70;;
36715;SDS011;22699;51.034;3.730;2023-04-03T09:00:47;10.70;;;2.83;;
36715;SDS011;22699;51.034;3.730;2023-04-03T09:03:30;6.00;;;2.55;;
36715;SDS011;22699;51.034;3.730;2023-04-03T09:06:07;6.60;;;1.90;;
36715;SDS011;22699;51.034;3.730;2023-04-03T09:17:11;5.07;;;2.33;;
36715;SDS011;22699;51.034;3.730;2023-04-03T09:22:35;5.22;;;2.40;;
36715;SDS011;22699;51.034;3.730;2023-04-03T09:25:13;3.53;;;2.10;;
36715;SDS011;22699;51.034;3.730;2023-04-03T09:27:45;5.97;;;2.80;;
36715;SDS011;22699;51.034;3.730;2023-04-03T09:30:18;2.90;;;1.77;;
36715;SDS011;22699;51.034;3.730;2023-04-03T09:32:49;3.63;;;1.90;;
36715;SDS011;22699;51.034;3.730;2023-04-03T09:37:54;5.93;;;2.25;;
36715;SDS011;22699;51.034;3.730;2023-04-03T09:42:50;4.43;;;1.90;;
36715;SDS011;22699;51.034;3.730;2023-04-03T09:48:37;2.83;;;1.70;;
36715;SDS011;22699;51.034;3.730;2023-04-03T09:56:03;3.90;;;1.90;;
36715;SDS011;22699;51.034;3.730;2023-04-03T10:01:33;3.72;;;2.17;;
36715;SDS011;22699;51.034;3.730;2023-04-03T10:04:04;4.53;;;2.17;;
36715;SDS011;22699;51.034;3.730;2023-04-03T10:06:34;3.97;;;1.85;;
36715;SDS011;22699;51.034;3.730;2023-04-03T10:09:14;2.95;;;1.63;;
36715;SDS011;22699;51.034;3.730;2023-04-03T10:14:32;7.60;;;3.17;;
36715;SDS011;22699;51.034;3.730;2023-04-03T10:17:02;4.32;;;2.10;;
36715;SDS011;22699;51.034;3.730;2023-04-03T10:22:31;7.80;;;2.35;;
36715;SDS011;22699;51.034;3.730;2023-04-03T10:25:30;3.22;;;2.15;;
36715;SDS011;22699;51.034;3.730;2023-04-03T10:36:12;6.57;;;1.80;;
36715;SDS011;22699;51.034;3.730;2023-04-03T10:38:44;5.03;;;1.70;;
36715;SDS011;22699;51.034;3.730;2023-04-03T10:41:16;6.15;;;2.42;;
36715;SDS011;22699;51.034;3.730;2023-04-03T10:46:42;3.72;;;1.90;;
36715;SDS011;22699;51.034;3.730;2023-04-03T10:49:27;4.18;;;1.88;;
36715;SDS011;22699;51.034;3.730;2023-04-03T10:52:22;6.40;;;1.50;;
36715;SDS011;22699;51.034;3.730;2023-04-03T10:54:58;2.80;;;1.35;;
36715;SDS011;22699;51.034;3.730;2023-04-03T10:57:31;4.47;;;1.75;;
36715;SDS011;22699;51.034;3.730;2023-04-03T11:00:04;9.68;;;2.15;;
36715;SDS011;22699;51.034;3.730;2023-04-03T11:02:48;6.80;;;2.08;;
36715;SDS011;22699;51.034;3.730;2023-04-03T11:08:01;8.15;;;2.28;;
36715;SDS011;22699;51.034;3.730;2023-04-03T11:13:15;5.60;;;1.92;;
36715;SDS011;22699;51.034;3.730;2023-04-03T11:15:44;5.22;;;1.95;;
36715;SDS011;22699;51.034;3.730;2023-04-03T11:18:17;3.88;;;1.88;;
36715;SDS011;22699;51.034;3.730;2023-04-03T11:20:59;3.67;;;1.60;;
36715;SDS011;22699;51.034;3.730;2023-04-03T11:23:47;3.03;;;1.20;;
36715;SDS011;22699;51.034;3.730;2023-04-03T11:26:19;7.45;;;2.35;;
36715;SDS011;22699;51.034;3.730;2023-04-03T11:29:00;6.38;;;1.77;;
36715;SDS011;22699;51.034;3.730;2023-04-03T11:42:47;2.72;;;1.30;;
36715;SDS011;22699;51.034;3.730;2023-04-03T11:47:50;2.55;;;1.25;;
36715;SDS011;22699;51.034;3.730;2023-04-03T11:53:25;4.55;;;1.60;;
36715;SDS011;22699;51.034;3.730;2023-04-03T11:55:53;4.18;;;1.38;;
36715;SDS011;22699;51.034;3.730;2023-04-03T12:01:42;2.95;;;1.08;;
36715;SDS011;22699;51.034;3.730;2023-04-03T12:04:08;2.05;;;1.00;;
36715;SDS011;22699;51.034;3.730;2023-04-03T12:09:21;3.40;;;1.88;;
36715;SDS011;22699;51.034;3.730;2023-04-03T12:11:55;5.05;;;1.70;;
36715;SDS011;22699;51.034;3.730;2023-04-03T12:14:22;3.83;;;1.75;;
36715;SDS011;22699;51.034;3.730;2023-04-03T12:16:50;9.40;;;2.38;;
36715;SDS011;22699;51.034;3.730;2023-04-03T12:19:37;5.88;;;1.13;;
36715;SDS011;22699;51.034;3.730;2023-04-03T12:22:18;5.00;;;2.13;;
36715;SDS011;22699;51.034;3.730;2023-04-03T12:24:54;3.55;;;1.20;;
36715;SDS011;22699;51.034;3.730;2023-04-03T12:35:19;2.78;;;1.10;;
36715;SDS011;22699;51.034;3.730;2023-04-03T12:38:27;2.08;;;1.08;;
36715;SDS011;22699;51.034;3.730;2023-04-03T12:43:55;3.93;;;1.63;;
36715;SDS011;22699;51.034;3.730;2023-04-03T12:46:47;4.88;;;1.05;;
36715;SDS011;22699;51.034;3.730;2023-04-03T12:49:26;2.60;;;1.10;;
36715;SDS011;22699;51.034;3.730;2023-04-03T12:52:23;2.50;;;1.20;;
36715;SDS011;22699;51.034;3.730;2023-04-03T12:54:52;1.50;;;1.00;;
36715;SDS011;22699;51.034;3.730;2023-04-03T12:57:23;3.67;;;1.38;;
36715;SDS011;22699;51.034;3.730;2023-04-03T12:59:52;3.10;;;1.27;;
36715;SDS011;22699;51.034;3.730;2023-04-03T13:02:38;4.30;;;1.17;;
36715;SDS011;22699;51.034;3.730;2023-04-03T13:05:13;3.42;;;1.30;;
36715;SDS011;22699;51.034;3.730;2023-04-03T13:07:41;3.35;;;1.13;;
36715;SDS011;22699;51.034;3.730;2023-04-03T13:12:56;3.08;;;1.08;;
36715;SDS011;22699;51.034;3.730;2023-04-03T13:15:24;2.80;;;1.25;;
36715;SDS011;22699;51.034;3.730;2023-04-03T13:17:56;1.95;;;1.05;;
36715;SDS011;22699;51.034;3.730;2023-04-03T13:20:25;2.22;;;1.00;;
36715;SDS011;22699;51.034;3.730;2023-04-03T13:25:41;4.88;;;1.20;;
36715;SDS011;22699;51.034;3.730;2023-04-03T13:28:13;4.35;;;1.50;;
36715;SDS011;22699;51.034;3.730;2023-04-03T13:30:54;1.50;;;0.90;;
36715;SDS011;22699;51.034;3.730;2023-04-03T13:33:24;1.58;;;1.08;;
36715;SDS011;22699;51.034;3.730;2023-04-03T13:35:57;1.45;;;0.95;;
36715;SDS011;22699;51.034;3.730;2023-04-03T13:38:31;2.30;;;1.45;;
36715;SDS011;22699;51.034;3.730;2023-04-03T13:43:50;2.60;;;1.15;;
36715;SDS011;22699;51.034;3.730;2023-04-03T13:46:46;3.70;;;1.30;;
36715;SDS011;22699;51.034;3.730;2023-04-03T13:51:54;1.60;;;0.80;;
36715;SDS011;22699;51.034;3.730;2023-04-03T13:54:34;2.00;;;0.88;;
36715;SDS011;22699;51.034;3.730;2023-04-03T13:57:11;2.13;;;1.00;;
36715;SDS011;22699;51.034;3.730;2023-04-03T13:59:39;3.03;;;0.70;;
36715;SDS011;22699;51.034;3.730;2023-04-03T14:02:12;3.25;;;0.90;;
36715;SDS011;22699;51.034;3.730;2023-04-03T14:04:48;3.97;;;1.23;;
36715;SDS011;22699;51.034;3.730;2023-04-03T14:07:24;2.22;;;0.77;;
36715;SDS011;22699;51.034;3.730;2023-04-03T14:09:58;5.45;;;1.00;;
36715;SDS011;22699;51.034;3.730;2023-04-03T14:12:26;3.92;;;0.90;;
36715;SDS011;22699;51.034;3.730;2023-04-03T14:15:03;2.47;;;0.82;;
36715;SDS011;22699;51.034;3.730;2023-04-03T14:17:39;3.90;;;1.25;;
36715;SDS011;22699;51.034;3.730;2023-04-03T14:20:05;3.23;;;1.03;;
36715;SDS011;22699;51.034;3.730;2023-04-03T14:22:33;1.75;;;1.05;;
36715;SDS011;22699;51.034;3.730;2023-04-03T14:24:59;1.90;;;1.10;;
36715;SDS011;22699;51.034;3.730;2023-04-03T14:27:35;2.97;;;1.00;;
36715;SDS011;22699;51.034;3.730;2023-04-03T14:30:09;5.43;;;1.17;;
36715;SDS011;22699;51.034;3.730;2023-04-03T14:32:46;1.70;;;0.90;;
36715;SDS011;22699;51.034;3.730;2023-04-03T14:35:14;3.33;;;0.95;;
36715;SDS011;22699;51.034;3.730;2023-04-03T14:37:44;1.90;;;0.85;;
36715;SDS011;22699;51.034;3.730;2023-04-03T14:40:13;2.33;;;1.13;;
36715;SDS011;22699;51.034;3.730;2023-04-03T14:42:52;7.68;;;1.35;;
36715;SDS011;22699;51.034;3.730;2023-04-03T14:45:21;7.72;;;1.48;;
36715;SDS011;22699;51.034;3.730;2023-04-03T14:47:51;10.23;;;2.00;;
36715;SDS011;22699;51.034;3.730;2023-04-03T14:52:46;16.08;;;4.07;;
36715;SDS011;22699;51.034;3.730;2023-04-03T14:55:17;17.58;;;8.55;;
36715;SDS011;22699;51.034;3.730;2023-04-03T14:57:44;4.47;;;1.52;;
36715;SDS011;22699;51.034;3.730;2023-04-03T15:00:17;2.33;;;1.48;;
36715;SDS011;22699;51.034;3.730;2023-04-03T15:02:45;3.55;;;1.25;;
36715;SDS011;22699;51.034;3.730;2023-04-03T15:05:12;2.92;;;1.27;;
36715;SDS011;22699;51.034;3.730;2023-04-03T15:10:26;2.83;;;1.25;;
36715;SDS011;22699;51.034;3.730;2023-04-03T15:12:54;4.07;;;1.23;;
36715;SDS011;22699;51.034;3.730;2023-04-03T15:15:21;2.97;;;1.05;;
36715;SDS011;22699;51.034;3.730;2023-04-03T15:17:50;2.00;;;1.40;;
36715;SDS011;22699;51.034;3.730;2023-04-03T15:20:21;3.28;;;1.38;;
36715;SDS011;22699;51.034;3.730;2023-04-03T15:22:48;2.85;;;1.20;;
36715;SDS011;22699;51.034;3.730;2023-04-03T15:25:14;4.88;;;2.30;;
36715;SDS011;22699;51.034;3.730;2023-04-03T15:27:41;4.28;;;1.30;;
36715;SDS011;22699;51.034;3.730;2023-04-03T15:30:08;4.90;;;1.30;;
36715;SDS011;22699;51.034;3.730;2023-04-03T15:32:38;5.03;;;1.67;;
36715;SDS011;22699;51.034;3.730;2023-04-03T15:35:03;4.18;;;1.10;;
36715;SDS011;22699;51.034;3.730;2023-04-03T15:37:30;2.72;;;1.27;;
36715;SDS011;22699;51.034;3.730;2023-04-03T15:39:55;3.10;;;1.60;;
36715;SDS011;22699;51.034;3.730;2023-04-03T15:42:21;4.15;;;1.20;;
36715;SDS011;22699;51.034;3.730;2023-04-03T15:44:47;6.55;;;4.90;;
36715;SDS011;22699;51.034;3.730;2023-04-03T15:47:12;11.77;;;5.68;;
36715;SDS011;22699;51.034;3.730;2023-04-03T15:49:38;11.98;;;5.70;;
36715;SDS011;22699;51.034;3.730;2023-04-03T15:52:04;2.92;;;0.98;;
36715;SDS011;22699;51.034;3.730;2023-04-03T15:54:30;3.25;;;1.55;;
36715;SDS011;22699;51.034;3.730;2023-04-03T15:56:56;4.70;;;2.42;;
36715;SDS011;22699;51.034;3.730;2023-04-03T15:59:22;5.53;;;1.60;;
36715;SDS011;22699;51.034;3.730;2023-04-03T16:01:49;4.68;;;1.15;;
36715;SDS011;22699;51.034;3.730;2023-04-03T16:04:15;3.63;;;1.13;;
36715;SDS011;22699;51.034;3.730;2023-04-03T16:06:41;2.10;;;1.05;;
36715;SDS011;22699;51.034;3.730;2023-04-03T16:09:07;3.10;;;1.10;;
36715;SDS011;22699;51.034;3.730;2023-04-03T16:11:33;2.75;;;1.42;;
36715;SDS011;22699;51.034;3.730;2023-04-03T16:14:02;3.28;;;1.10;;
36715;SDS011;22699;51.034;3.730;2023-04-03T16:16:27;2.97;;;0.80;;
36715;SDS011;22699;51.034;3.730;2023-04-03T16:18:54;3.67;;;1.30;;
36715;SDS011;22699;51.034;3.730;2023-04-03T16:21:21;2.50;;;0.85;;
36715;SDS011;22699;51.034;3.730;2023-04-03T16:23:47;3.30;;;1.40;;
36715;SDS011;22699;51.034;3.730;2023-04-03T16:26:13;2.97;;;1.33;;
36715;SDS011;22699;51.034;3.730;2023-04-03T16:28:39;5.28;;;1.10;;
36715;SDS011;22699;51.034;3.730;2023-04-03T16:31:05;3.90;;;1.25;;
36715;SDS011;22699;51.034;3.730;2023-04-03T16:33:32;2.78;;;1.30;;
36715;SDS011;22699;51.034;3.730;2023-04-03T16:35:58;2.92;;;0.90;;
36715;SDS011;22699;51.034;3.730;2023-04-03T16:38:23;4.07;;;1.25;;
36715;SDS011;22699;51.034;3.730;2023-04-03T16:40:50;2.83;;;1.33;;
36715;SDS011;22699;51.034;3.730;2023-04-03T16:43:17;3.67;;;1.10;;
36715;SDS011;22699;51.034;3.730;2023-04-03T16:45:43;2.88;;;1.23;;
36715;SDS011;22699;51.034;3.730;2023-04-03T16:48:08;2.92;;;1.08;;
36715;SDS011;22699;51.034;3.730;2023-04-03T16:50:34;1.67;;;1.02;;
36715;SDS011;22699;51.034;3.730;2023-04-03T16:53:01;3.33;;;1.30;;
36715;SDS011;22699;51.034;3.730;2023-04-03T16:55:27;2.20;;;1.30;;
36715;SDS011;22699;51.034;3.730;2023-04-03T16:57:53;1.48;;;1.20;;
36715;SDS011;22699;51.034;3.730;2023-04-03T17:00:20;2.38;;;0.85;;
36715;SDS011;22699;51.034;3.730;2023-04-03T17:02:46;2.58;;;1.45;;
36715;SDS011;22699;51.034;3.730;2023-04-03T17:05:11;2.72;;;1.10;;
36715;SDS011;22699;51.034;3.730;2023-04-03T17:07:37;3.67;;;1.27;;
36715;SDS011;22699;51.034;3.730;2023-04-03T17:10:03;2.35;;;1.00;;
36715;SDS011;22699;51.034;3.730;2023-04-03T17:12:29;3.17;;;0.95;;
36715;SDS011;22699;51.034;3.730;2023-04-03T17:14:54;3.50;;;1.20;;
36715;SDS011;22699;51.034;3.730;2023-04-03T17:17:21;2.53;;;1.00;;
36715;SDS011;22699;51.034;3.730;2023-04-03T17:19:49;3.00;;;1.35;;
36715;SDS011;22699;51.034;3.730;2023-04-03T17:22:14;2.67;;;1.13;;
36715;SDS011;22699;51.034;3.730;2023-04-03T17:24:43;2.70;;;1.33;;
36715;SDS011;22699;51.034;3.730;2023-04-03T17:27:09;2.03;;;1.10;;
36715;SDS011;22699;51.034;3.730;2023-04-03T17:29:35;2.70;;;0.90;;
36715;SDS011;22699;51.034;3.730;2023-04-03T17:32:00;3.08;;;1.05;;
36715;SDS011;22699;51.034;3.730;2023-04-03T17:34:26;2.90;;;1.10;;
36715;SDS011;22699;51.034;3.730;2023-04-03T17:36:51;2.63;;;1.10;;
36715;SDS011;22699;51.034;3.730;2023-04-03T17:39:17;4.15;;;1.30;;
36715;SDS011;22699;51.034;3.730;2023-04-03T17:41:43;2.45;;;1.20;;
36715;SDS011;22699;51.034;3.730;2023-04-03T17:44:10;2.67;;;0.90;;
36715;SDS011;22699;51.034;3.730;2023-04-03T17:46:36;3.05;;;1.30;;
36715;SDS011;22699;51.034;3.730;2023-04-03T17:49:03;5.03;;;1.38;;
36715;SDS011;22699;51.034;3.730;2023-04-03T17:51:31;4.10;;;1.48;;
36715;SDS011;22699;51.034;3.730;2023-04-03T17:54:00;4.93;;;1.40;;
36715;SDS011;22699;51.034;3.730;2023-04-03T17:58:56;18.60;;;7.63;;
36715;SDS011;22699;51.034;3.730;2023-04-03T18:04:02;4.20;;;1.38;;